Newark, Delaware
Current Conditions -  °F | °C
As of 1:51 PM on Thursday 30 Oct 2014 (Local Time) from KILG Reporting Station
Broken Clouds Broken Clouds  
Wind Chill: 58°   Ceiling: 6500
Heat Index: 58°   Visibility: 10mi
Dew Point: 39°   Wind: 5mph
Humidity: 49%   Direction: 320°NW
Pressure: 30.01"   Gusts: NA
Location:  39.68°N, 75.76°W
Report Text: KILG 301751Z 32004KT 10SM FEW045 BKN065 14/04 A3001 RMK AO2 SLP162 T01440039 10150 20072 58010
Loading
Personal Weather Stations






























Interactive Weather Map
Tropical Storm Tracking
New forecast layout! Learn more

10-Day Weather Forecast

Advertisements
Track Severe Weather on mobile